sensor_id;sensor_type;location;lat;lon;timestamp;temperature;humidity
652;DHT22;310;48.490;9.200;2022-09-03T00:02:39;23.20;25.80
652;DHT22;310;48.490;9.200;2022-09-03T00:05:19;23.40;26.40
652;DHT22;310;48.490;9.200;2022-09-03T00:07:59;23.40;26.90
652;DHT22;310;48.490;9.200;2022-09-03T00:11:06;23.20;25.80
652;DHT22;310;48.490;9.200;2022-09-03T00:13:44;23.20;25.60
652;DHT22;310;48.490;9.200;2022-09-03T00:16:14;23.20;26.60
652;DHT22;310;48.490;9.200;2022-09-03T00:18:46;23.10;26.40
652;DHT22;310;48.490;9.200;2022-09-03T00:21:18;22.70;26.40
652;DHT22;310;48.490;9.200;2022-09-03T00:23:48;22.60;27.00
652;DHT22;310;48.490;9.200;2022-09-03T00:26:33;22.80;27.30
652;DHT22;310;48.490;9.200;2022-09-03T00:29:08;22.50;26.70
652;DHT22;310;48.490;9.200;2022-09-03T00:31:44;22.60;27.80
652;DHT22;310;48.490;9.200;2022-09-03T00:34:29;22.40;27.70
652;DHT22;310;48.490;9.200;2022-09-03T00:36:56;22.70;28.80
652;DHT22;310;48.490;9.200;2022-09-03T00:39:24;22.90;27.40
652;DHT22;310;48.490;9.200;2022-09-03T00:53:55;22.90;27.00
652;DHT22;310;48.490;9.200;2022-09-03T00:56:06;22.90;26.80
652;DHT22;310;48.490;9.200;2022-09-03T01:02:00;22.80;26.90
652;DHT22;310;48.490;9.200;2022-09-03T01:07:04;23.00;28.10
652;DHT22;310;48.490;9.200;2022-09-03T01:09:48;22.90;28.10
652;DHT22;310;48.490;9.200;2022-09-03T01:15:05;22.90;28.00
652;DHT22;310;48.490;9.200;2022-09-03T01:39:28;22.80;28.00
652;DHT22;310;48.490;9.200;2022-09-03T01:47:15;22.90;28.80
652;DHT22;310;48.490;9.200;2022-09-03T01:52:44;22.80;28.00
652;DHT22;310;48.490;9.200;2022-09-03T01:55:32;22.70;27.90
652;DHT22;310;48.490;9.200;2022-09-03T02:01:16;22.60;28.70
652;DHT22;310;48.490;9.200;2022-09-03T02:03:46;22.60;29.40
652;DHT22;310;48.490;9.200;2022-09-03T02:06:12;22.70;29.00
652;DHT22;310;48.490;9.200;2022-09-03T02:08:38;22.60;29.20
652;DHT22;310;48.490;9.200;2022-09-03T02:11:06;22.70;29.00
652;DHT22;310;48.490;9.200;2022-09-03T02:13:46;22.70;28.90
652;DHT22;310;48.490;9.200;2022-09-03T02:16:21;22.50;29.70
652;DHT22;310;48.490;9.200;2022-09-03T02:19:03;22.50;29.80
652;DHT22;310;48.490;9.200;2022-09-03T02:21:38;22.50;29.50
652;DHT22;310;48.490;9.200;2022-09-03T02:24:07;22.50;29.60
652;DHT22;310;48.490;9.200;2022-09-03T02:26:33;22.50;30.10
652;DHT22;310;48.490;9.200;2022-09-03T02:29:00;22.40;30.90
652;DHT22;310;48.490;9.200;2022-09-03T02:31:27;22.30;30.40
652;DHT22;310;48.490;9.200;2022-09-03T02:33:54;22.20;32.00
652;DHT22;310;48.490;9.200;2022-09-03T02:36:25;22.20;32.10
652;DHT22;310;48.490;9.200;2022-09-03T02:38:50;22.20;31.50
652;DHT22;310;48.490;9.200;2022-09-03T02:41:16;22.30;31.00
652;DHT22;310;48.490;9.200;2022-09-03T02:44:07;22.20;31.10
652;DHT22;310;48.490;9.200;2022-09-03T02:46:40;22.20;32.70
652;DHT22;310;48.490;9.200;2022-09-03T02:49:07;22.10;32.50
652;DHT22;310;48.490;9.200;2022-09-03T02:51:38;22.00;32.00
652;DHT22;310;48.490;9.200;2022-09-03T02:54:05;22.00;31.70
652;DHT22;310;48.490;9.200;2022-09-03T02:56:31;21.80;32.60
652;DHT22;310;48.490;9.200;2022-09-03T02:58:57;21.90;32.20
652;DHT22;310;48.490;9.200;2022-09-03T03:01:23;21.80;32.20
652;DHT22;310;48.490;9.200;2022-09-03T03:03:49;21.80;32.40
652;DHT22;310;48.490;9.200;2022-09-03T03:06:14;21.80;31.50
652;DHT22;310;48.490;9.200;2022-09-03T03:08:40;21.80;34.00
652;DHT22;310;48.490;9.200;2022-09-03T03:11:06;21.80;32.60
652;DHT22;310;48.490;9.200;2022-09-03T03:13:32;21.80;33.00
652;DHT22;310;48.490;9.200;2022-09-03T03:16:00;21.80;32.70
652;DHT22;310;48.490;9.200;2022-09-03T03:18:26;21.70;32.60
652;DHT22;310;48.490;9.200;2022-09-03T03:20:53;21.80;32.90
652;DHT22;310;48.490;9.200;2022-09-03T03:23:19;21.90;32.50
652;DHT22;310;48.490;9.200;2022-09-03T03:25:45;21.90;32.80
652;DHT22;310;48.490;9.200;2022-09-03T03:28:10;21.90;33.90
652;DHT22;310;48.490;9.200;2022-09-03T03:30:38;21.90;32.10
652;DHT22;310;48.490;9.200;2022-09-03T03:33:05;22.00;32.80
652;DHT22;310;48.490;9.200;2022-09-03T03:35:30;22.00;31.70
652;DHT22;310;48.490;9.200;2022-09-03T03:37:57;21.90;32.70
652;DHT22;310;48.490;9.200;2022-09-03T03:40:23;22.00;33.10
652;DHT22;310;48.490;9.200;2022-09-03T03:42:49;21.90;32.60
652;DHT22;310;48.490;9.200;2022-09-03T03:45:15;22.00;31.80
652;DHT22;310;48.490;9.200;2022-09-03T03:47:40;21.90;31.90
652;DHT22;310;48.490;9.200;2022-09-03T03:50:06;21.80;32.10
652;DHT22;310;48.490;9.200;2022-09-03T03:52:32;21.90;32.50
652;DHT22;310;48.490;9.200;2022-09-03T03:54:58;22.00;32.60
652;DHT22;310;48.490;9.200;2022-09-03T03:57:23;22.10;33.00
652;DHT22;310;48.490;9.200;2022-09-03T03:59:49;22.20;33.60
652;DHT22;310;48.490;9.200;2022-09-03T04:02:17;22.10;32.80
652;DHT22;310;48.490;9.200;2022-09-03T04:04:43;22.30;34.30
652;DHT22;310;48.490;9.200;2022-09-03T04:07:08;22.30;33.30
652;DHT22;310;48.490;9.200;2022-09-03T04:09:34;22.30;33.00
652;DHT22;310;48.490;9.200;2022-09-03T04:12:00;22.30;32.60
652;DHT22;310;48.490;9.200;2022-09-03T04:14:26;22.30;32.80
652;DHT22;310;48.490;9.200;2022-09-03T04:16:52;22.20;33.30
652;DHT22;310;48.490;9.200;2022-09-03T04:19:18;22.10;33.20
652;DHT22;310;48.490;9.200;2022-09-03T04:21:44;22.10;31.90
652;DHT22;310;48.490;9.200;2022-09-03T04:24:10;22.20;33.30
652;DHT22;310;48.490;9.200;2022-09-03T04:26:35;22.30;33.00
652;DHT22;310;48.490;9.200;2022-09-03T04:29:04;22.30;33.00
652;DHT22;310;48.490;9.200;2022-09-03T04:31:30;22.30;32.50
652;DHT22;310;48.490;9.200;2022-09-03T04:33:56;22.40;32.40
652;DHT22;310;48.490;9.200;2022-09-03T04:36:24;22.40;32.10
652;DHT22;310;48.490;9.200;2022-09-03T04:38:52;22.30;32.10
652;DHT22;310;48.490;9.200;2022-09-03T04:41:24;22.40;32.80
652;DHT22;310;48.490;9.200;2022-09-03T04:43:51;22.40;33.50
652;DHT22;310;48.490;9.200;2022-09-03T04:46:18;22.40;34.50
652;DHT22;310;48.490;9.200;2022-09-03T04:48:50;22.50;33.70
652;DHT22;310;48.490;9.200;2022-09-03T04:51:21;22.30;34.00
652;DHT22;310;48.490;9.200;2022-09-03T04:53:53;22.30;35.40
652;DHT22;310;48.490;9.200;2022-09-03T04:56:21;22.40;34.50
652;DHT22;310;48.490;9.200;2022-09-03T04:58:47;22.30;35.40
652;DHT22;310;48.490;9.200;2022-09-03T05:01:17;22.40;34.10
652;DHT22;310;48.490;9.200;2022-09-03T05:03:43;22.30;33.40
652;DHT22;310;48.490;9.200;2022-09-03T05:06:08;22.30;34.10
652;DHT22;310;48.490;9.200;2022-09-03T05:08:35;22.30;34.10
652;DHT22;310;48.490;9.200;2022-09-03T05:11:05;22.30;35.10
652;DHT22;310;48.490;9.200;2022-09-03T05:13:32;22.30;35.60
652;DHT22;310;48.490;9.200;2022-09-03T05:16:06;22.20;36.10
652;DHT22;310;48.490;9.200;2022-09-03T05:18:32;22.10;35.80
652;DHT22;310;48.490;9.200;2022-09-03T05:21:05;21.30;35.50
652;DHT22;310;48.490;9.200;2022-09-03T05:23:35;20.90;37.60
652;DHT22;310;48.490;9.200;2022-09-03T05:26:04;21.30;37.50
652;DHT22;310;48.490;9.200;2022-09-03T05:28:34;21.60;37.20
652;DHT22;310;48.490;9.200;2022-09-03T05:31:03;21.70;36.50
652;DHT22;310;48.490;9.200;2022-09-03T05:33:29;21.80;36.40
652;DHT22;310;48.490;9.200;2022-09-03T05:36:01;22.00;37.70
652;DHT22;310;48.490;9.200;2022-09-03T05:38:27;22.10;38.00
652;DHT22;310;48.490;9.200;2022-09-03T05:40:56;22.20;36.00
652;DHT22;310;48.490;9.200;2022-09-03T05:43:22;22.00;35.20
652;DHT22;310;48.490;9.200;2022-09-03T05:45:47;22.10;35.60
652;DHT22;310;48.490;9.200;2022-09-03T05:48:13;22.30;35.40
652;DHT22;310;48.490;9.200;2022-09-03T05:50:39;22.20;36.20
652;DHT22;310;48.490;9.200;2022-09-03T05:53:05;22.20;36.80
652;DHT22;310;48.490;9.200;2022-09-03T05:55:31;22.40;37.30
652;DHT22;310;48.490;9.200;2022-09-03T05:57:56;22.40;37.10
652;DHT22;310;48.490;9.200;2022-09-03T06:00:22;22.40;36.40
652;DHT22;310;48.490;9.200;2022-09-03T06:02:51;22.40;36.50
652;DHT22;310;48.490;9.200;2022-09-03T06:05:17;22.40;37.60
652;DHT22;310;48.490;9.200;2022-09-03T06:07:44;22.50;37.70
652;DHT22;310;48.490;9.200;2022-09-03T06:10:13;22.50;37.10
652;DHT22;310;48.490;9.200;2022-09-03T06:12:41;22.60;37.00
652;DHT22;310;48.490;9.200;2022-09-03T06:15:07;22.60;37.40
652;DHT22;310;48.490;9.200;2022-09-03T06:17:32;22.60;37.00
652;DHT22;310;48.490;9.200;2022-09-03T06:19:58;22.70;39.00
652;DHT22;310;48.490;9.200;2022-09-03T06:22:24;22.70;37.30
652;DHT22;310;48.490;9.200;2022-09-03T06:24:52;22.80;38.30
652;DHT22;310;48.490;9.200;2022-09-03T06:27:18;22.80;38.60
652;DHT22;310;48.490;9.200;2022-09-03T06:29:45;22.60;37.00
652;DHT22;310;48.490;9.200;2022-09-03T06:32:11;22.60;38.40
652;DHT22;310;48.490;9.200;2022-09-03T06:34:36;22.30;36.80
652;DHT22;310;48.490;9.200;2022-09-03T06:37:02;22.00;38.30
652;DHT22;310;48.490;9.200;2022-09-03T06:39:28;21.80;37.90
652;DHT22;310;48.490;9.200;2022-09-03T06:41:53;21.80;38.00
652;DHT22;310;48.490;9.200;2022-09-03T06:44:19;22.00;38.60
652;DHT22;310;48.490;9.200;2022-09-03T06:46:45;22.10;37.50
652;DHT22;310;48.490;9.200;2022-09-03T06:49:11;22.40;38.30
652;DHT22;310;48.490;9.200;2022-09-03T06:51:37;22.70;37.80
652;DHT22;310;48.490;9.200;2022-09-03T06:54:09;22.70;37.20
652;DHT22;310;48.490;9.200;2022-09-03T06:56:36;22.90;36.50
652;DHT22;310;48.490;9.200;2022-09-03T06:59:12;22.90;36.40
652;DHT22;310;48.490;9.200;2022-09-03T07:01:39;23.10;37.40
652;DHT22;310;48.490;9.200;2022-09-03T07:04:06;23.30;37.30
652;DHT22;310;48.490;9.200;2022-09-03T07:06:35;23.30;39.30
652;DHT22;310;48.490;9.200;2022-09-03T07:09:02;23.40;38.10
652;DHT22;310;48.490;9.200;2022-09-03T07:11:29;23.30;37.10
652;DHT22;310;48.490;9.200;2022-09-03T07:13:56;23.40;37.20
652;DHT22;310;48.490;9.200;2022-09-03T07:16:23;23.50;35.40
652;DHT22;310;48.490;9.200;2022-09-03T07:18:49;23.30;38.00
652;DHT22;310;48.490;9.200;2022-09-03T07:21:18;23.40;35.90
652;DHT22;310;48.490;9.200;2022-09-03T07:23:45;23.60;36.60
652;DHT22;310;48.490;9.200;2022-09-03T07:26:35;23.50;34.40
652;DHT22;310;48.490;9.200;2022-09-03T07:29:00;23.50;35.50
652;DHT22;310;48.490;9.200;2022-09-03T07:31:32;23.60;36.00
652;DHT22;310;48.490;9.200;2022-09-03T07:34:00;23.30;34.90
652;DHT22;310;48.490;9.200;2022-09-03T07:36:28;23.20;37.20
652;DHT22;310;48.490;9.200;2022-09-03T07:38:56;23.50;36.50
652;DHT22;310;48.490;9.200;2022-09-03T07:41:22;23.60;35.80
652;DHT22;310;48.490;9.200;2022-09-03T07:43:49;23.60;37.60
652;DHT22;310;48.490;9.200;2022-09-03T07:46:17;23.60;35.70
652;DHT22;310;48.490;9.200;2022-09-03T07:48:47;23.70;37.30
652;DHT22;310;48.490;9.200;2022-09-03T07:51:14;23.80;35.80
652;DHT22;310;48.490;9.200;2022-09-03T07:53:39;24.00;35.80
652;DHT22;310;48.490;9.200;2022-09-03T07:56:07;23.90;34.70
652;DHT22;310;48.490;9.200;2022-09-03T07:58:36;24.00;35.20
652;DHT22;310;48.490;9.200;2022-09-03T08:01:09;23.90;34.30
652;DHT22;310;48.490;9.200;2022-09-03T08:03:36;23.50;36.50
652;DHT22;310;48.490;9.200;2022-09-03T08:06:04;23.20;36.50
652;DHT22;310;48.490;9.200;2022-09-03T08:08:31;23.00;37.30
652;DHT22;310;48.490;9.200;2022-09-03T08:13:34;22.90;37.70
652;DHT22;310;48.490;9.200;2022-09-03T08:16:00;22.50;39.00
652;DHT22;310;48.490;9.200;2022-09-03T08:18:26;22.10;40.00
652;DHT22;310;48.490;9.200;2022-09-03T08:21:07;21.80;40.80
652;DHT22;310;48.490;9.200;2022-09-03T08:23:38;21.80;40.50
652;DHT22;310;48.490;9.200;2022-09-03T08:26:04;22.40;40.10
652;DHT22;310;48.490;9.200;2022-09-03T08:28:31;22.70;38.30
652;DHT22;310;48.490;9.200;2022-09-03T08:31:03;22.60;38.60
652;DHT22;310;48.490;9.200;2022-09-03T08:33:29;22.20;40.00
652;DHT22;310;48.490;9.200;2022-09-03T08:36:07;21.80;42.10
652;DHT22;310;48.490;9.200;2022-09-03T08:38:33;22.10;41.80
652;DHT22;310;48.490;9.200;2022-09-03T08:41:32;22.20;41.50
652;DHT22;310;48.490;9.200;2022-09-03T08:47:27;23.00;38.50
652;DHT22;310;48.490;9.200;2022-09-03T08:57:59;24.40;34.60
652;DHT22;310;48.490;9.200;2022-09-03T09:00:34;24.60;34.50
652;DHT22;310;48.490;9.200;2022-09-03T09:05:59;24.20;33.50
652;DHT22;310;48.490;9.200;2022-09-03T09:16:39;23.70;35.20
652;DHT22;310;48.490;9.200;2022-09-03T09:21:47;24.70;32.90
652;DHT22;310;48.490;9.200;2022-09-03T09:24:22;24.80;33.30
652;DHT22;310;48.490;9.200;2022-09-03T09:26:48;24.60;32.10
652;DHT22;310;48.490;9.200;2022-09-03T09:29:16;24.70;31.80
652;DHT22;310;48.490;9.200;2022-09-03T09:31:42;25.20;32.30
652;DHT22;310;48.490;9.200;2022-09-03T09:34:09;25.40;31.50
652;DHT22;310;48.490;9.200;2022-09-03T09:36:47;25.60;30.50
652;DHT22;310;48.490;9.200;2022-09-03T09:39:13;25.80;29.20
652;DHT22;310;48.490;9.200;2022-09-03T09:41:42;24.80;31.00
652;DHT22;310;48.490;9.200;2022-09-03T09:44:18;24.90;30.80
652;DHT22;310;48.490;9.200;2022-09-03T09:46:45;25.30;30.50
652;DHT22;310;48.490;9.200;2022-09-03T09:49:32;25.80;29.90
652;DHT22;310;48.490;9.200;2022-09-03T09:52:06;26.10;29.00
652;DHT22;310;48.490;9.200;2022-09-03T09:54:32;26.10;29.30
652;DHT22;310;48.490;9.200;2022-09-03T09:57:04;26.00;29.70
652;DHT22;310;48.490;9.200;2022-09-03T09:59:31;26.30;28.40
652;DHT22;310;48.490;9.200;2022-09-03T10:02:15;26.00;29.20
652;DHT22;310;48.490;9.200;2022-09-03T10:04:44;26.20;29.10
652;DHT22;310;48.490;9.200;2022-09-03T10:07:29;26.20;28.80
652;DHT22;310;48.490;9.200;2022-09-03T10:10:23;26.40;28.60
652;DHT22;310;48.490;9.200;2022-09-03T10:21:05;26.80;30.60
652;DHT22;310;48.490;9.200;2022-09-03T10:23:39;26.60;30.00
652;DHT22;310;48.490;9.200;2022-09-03T10:26:16;26.20;31.00
652;DHT22;310;48.490;9.200;2022-09-03T10:28:51;26.20;31.80
652;DHT22;310;48.490;9.200;2022-09-03T10:32:02;26.20;29.10
652;DHT22;310;48.490;9.200;2022-09-03T10:37:46;25.60;30.70
652;DHT22;310;48.490;9.200;2022-09-03T10:45:38;25.60;29.90
652;DHT22;310;48.490;9.200;2022-09-03T10:48:44;24.90;31.30
652;DHT22;310;48.490;9.200;2022-09-03T10:51:30;25.00;33.60
652;DHT22;310;48.490;9.200;2022-09-03T10:56:56;26.20;30.20
652;DHT22;310;48.490;9.200;2022-09-03T10:59:35;26.60;31.50
652;DHT22;310;48.490;9.200;2022-09-03T11:02:36;26.90;31.20
652;DHT22;310;48.490;9.200;2022-09-03T11:10:33;27.10;29.90
652;DHT22;310;48.490;9.200;2022-09-03T11:13:10;27.00;30.70
652;DHT22;310;48.490;9.200;2022-09-03T11:15:59;26.90;28.00
652;DHT22;310;48.490;9.200;2022-09-03T11:18:33;26.50;28.00
652;DHT22;310;48.490;9.200;2022-09-03T11:21:04;25.70;31.30
652;DHT22;310;48.490;9.200;2022-09-03T11:23:32;25.80;31.80
652;DHT22;310;48.490;9.200;2022-09-03T11:26:04;25.80;30.00
652;DHT22;310;48.490;9.200;2022-09-03T11:36:35;25.40;33.60
652;DHT22;310;48.490;9.200;2022-09-03T11:42:00;25.60;33.80
652;DHT22;310;48.490;9.200;2022-09-03T11:44:40;25.60;35.00
652;DHT22;310;48.490;9.200;2022-09-03T11:47:15;24.90;36.80
652;DHT22;310;48.490;9.200;2022-09-03T11:49:50;23.20;43.60
652;DHT22;310;48.490;9.200;2022-09-03T11:52:27;21.90;50.70
652;DHT22;310;48.490;9.200;2022-09-03T11:54:53;21.60;55.80
652;DHT22;310;48.490;9.200;2022-09-03T11:57:30;21.60;53.30
652;DHT22;310;48.490;9.200;2022-09-03T12:00:11;21.30;57.30
652;DHT22;310;48.490;9.200;2022-09-03T12:02:44;21.10;59.80
652;DHT22;310;48.490;9.200;2022-09-03T12:05:20;20.80;58.60
652;DHT22;310;48.490;9.200;2022-09-03T12:18:24;21.00;57.90
652;DHT22;310;48.490;9.200;2022-09-03T12:26:07;20.60;58.50
652;DHT22;310;48.490;9.200;2022-09-03T12:28:37;20.80;58.10
652;DHT22;310;48.490;9.200;2022-09-03T12:31:24;21.00;58.40
652;DHT22;310;48.490;9.200;2022-09-03T12:36:21;21.30;58.60
652;DHT22;310;48.490;9.200;2022-09-03T12:38:47;21.40;59.20
652;DHT22;310;48.490;9.200;2022-09-03T12:41:26;21.50;58.30
652;DHT22;310;48.490;9.200;2022-09-03T12:43:55;21.80;57.60
652;DHT22;310;48.490;9.200;2022-09-03T12:46:25;21.90;56.70
652;DHT22;310;48.490;9.200;2022-09-03T12:48:53;22.00;56.30
652;DHT22;310;48.490;9.200;2022-09-03T12:51:19;22.10;55.80
652;DHT22;310;48.490;9.200;2022-09-03T12:53:46;22.20;54.30
652;DHT22;310;48.490;9.200;2022-09-03T12:56:13;22.40;51.60
652;DHT22;310;48.490;9.200;2022-09-03T12:58:51;22.40;54.20
652;DHT22;310;48.490;9.200;2022-09-03T13:01:26;22.30;53.70
652;DHT22;310;48.490;9.200;2022-09-03T13:04:28;22.30;53.90
652;DHT22;310;48.490;9.200;2022-09-03T13:07:11;22.30;56.00
652;DHT22;310;48.490;9.200;2022-09-03T13:09:40;22.30;55.20
652;DHT22;310;48.490;9.200;2022-09-03T13:12:18;22.20;55.70
652;DHT22;310;48.490;9.200;2022-09-03T13:15:06;22.30;57.30
652;DHT22;310;48.490;9.200;2022-09-03T13:18:09;22.30;53.50
652;DHT22;310;48.490;9.200;2022-09-03T13:20:49;22.30;55.80
652;DHT22;310;48.490;9.200;2022-09-03T13:29:09;22.70;55.90
652;DHT22;310;48.490;9.200;2022-09-03T13:31:46;22.80;56.10
652;DHT22;310;48.490;9.200;2022-09-03T13:36:55;23.20;52.80
652;DHT22;310;48.490;9.200;2022-09-03T13:39:39;23.50;46.10
652;DHT22;310;48.490;9.200;2022-09-03T13:42:17;23.50;47.40
652;DHT22;310;48.490;9.200;2022-09-03T13:44:57;23.40;50.20
652;DHT22;310;48.490;9.200;2022-09-03T13:47:38;23.60;51.80
652;DHT22;310;48.490;9.200;2022-09-03T13:50:28;23.20;51.10
652;DHT22;310;48.490;9.200;2022-09-03T13:55:41;24.30;50.50
652;DHT22;310;48.490;9.200;2022-09-03T13:58:41;24.80;50.60
652;DHT22;310;48.490;9.200;2022-09-03T14:03:51;25.60;41.80
652;DHT22;310;48.490;9.200;2022-09-03T14:06:39;26.20;45.60
652;DHT22;310;48.490;9.200;2022-09-03T14:12:08;27.00;42.30
652;DHT22;310;48.490;9.200;2022-09-03T14:23:15;27.30;39.10
652;DHT22;310;48.490;9.200;2022-09-03T14:25:33;27.60;35.50
652;DHT22;310;48.490;9.200;2022-09-03T14:28:13;27.90;35.90
652;DHT22;310;48.490;9.200;2022-09-03T14:30:51;28.50;31.70
652;DHT22;310;48.490;9.200;2022-09-03T14:33:23;28.40;31.70
652;DHT22;310;48.490;9.200;2022-09-03T14:36:17;28.20;34.70
652;DHT22;310;48.490;9.200;2022-09-03T14:38:56;29.20;29.80
652;DHT22;310;48.490;9.200;2022-09-03T14:52:52;31.00;24.10
652;DHT22;310;48.490;9.200;2022-09-03T15:01:31;29.10;28.10
652;DHT22;310;48.490;9.200;2022-09-03T15:07:49;27.60;28.70
652;DHT22;310;48.490;9.200;2022-09-03T15:12:36;26.80;34.10
652;DHT22;310;48.490;9.200;2022-09-03T15:15:12;26.60;37.60
652;DHT22;310;48.490;9.200;2022-09-03T15:17:54;26.50;34.40
652;DHT22;310;48.490;9.200;2022-09-03T15:37:35;26.00;34.40
652;DHT22;310;48.490;9.200;2022-09-03T15:42:31;25.60;33.00
652;DHT22;310;48.490;9.200;2022-09-03T15:45:04;25.80;33.00
652;DHT22;310;48.490;9.200;2022-09-03T15:56:15;25.20;33.30
652;DHT22;310;48.490;9.200;2022-09-03T15:59:02;25.50;33.70
652;DHT22;310;48.490;9.200;2022-09-03T16:01:45;25.90;32.40
652;DHT22;310;48.490;9.200;2022-09-03T16:07:00;26.30;31.90
652;DHT22;310;48.490;9.200;2022-09-03T16:12:28;25.60;34.90
652;DHT22;310;48.490;9.200;2022-09-03T16:17:35;25.80;33.70
652;DHT22;310;48.490;9.200;2022-09-03T16:20:35;26.00;35.50
652;DHT22;310;48.490;9.200;2022-09-03T16:23:16;26.30;37.10
652;DHT22;310;48.490;9.200;2022-09-03T16:36:36;26.20;37.40
652;DHT22;310;48.490;9.200;2022-09-03T16:42:14;26.00;37.50
652;DHT22;310;48.490;9.200;2022-09-03T16:58:50;25.80;39.20
652;DHT22;310;48.490;9.200;2022-09-03T17:01:47;25.90;40.40
652;DHT22;310;48.490;9.200;2022-09-03T17:12:13;25.80;39.40
652;DHT22;310;48.490;9.200;2022-09-03T17:23:17;25.20;41.00
652;DHT22;310;48.490;9.200;2022-09-03T17:26:06;25.20;42.30
652;DHT22;310;48.490;9.200;2022-09-03T17:29:08;25.10;43.70
652;DHT22;310;48.490;9.200;2022-09-03T17:41:01;24.40;46.70
652;DHT22;310;48.490;9.200;2022-09-03T17:44:20;24.40;46.00
652;DHT22;310;48.490;9.200;2022-09-03T17:49:33;24.40;46.70
652;DHT22;310;48.490;9.200;2022-09-03T17:54:46;23.90;49.90
652;DHT22;310;48.490;9.200;2022-09-03T17:57:36;23.90;49.50
652;DHT22;310;48.490;9.200;2022-09-03T18:00:11;23.70;50.10
652;DHT22;310;48.490;9.200;2022-09-03T18:05:51;23.50;50.20
652;DHT22;310;48.490;9.200;2022-09-03T18:08:32;23.50;50.40
652;DHT22;310;48.490;9.200;2022-09-03T18:16:25;23.40;50.80
652;DHT22;310;48.490;9.200;2022-09-03T18:18:56;23.30;51.70
652;DHT22;310;48.490;9.200;2022-09-03T18:21:25;23.20;51.30
652;DHT22;310;48.490;9.200;2022-09-03T18:24:30;23.20;50.50
652;DHT22;310;48.490;9.200;2022-09-03T18:27:26;23.40;49.90
652;DHT22;310;48.490;9.200;2022-09-03T18:30:13;23.50;49.00
652;DHT22;310;48.490;9.200;2022-09-03T18:32:58;23.20;50.90
652;DHT22;310;48.490;9.200;2022-09-03T18:35:44;22.90;51.90
652;DHT22;310;48.490;9.200;2022-09-03T18:38:34;22.80;51.80
652;DHT22;310;48.490;9.200;2022-09-03T18:50:25;22.70;51.00
652;DHT22;310;48.490;9.200;2022-09-03T18:53:27;22.60;50.90
652;DHT22;310;48.490;9.200;2022-09-03T18:59:27;22.50;52.20
652;DHT22;310;48.490;9.200;2022-09-03T19:05:46;22.40;51.60
652;DHT22;310;48.490;9.200;2022-09-03T19:08:56;22.40;51.20
652;DHT22;310;48.490;9.200;2022-09-03T19:12:11;22.40;51.70
652;DHT22;310;48.490;9.200;2022-09-03T19:15:07;22.40;51.30
652;DHT22;310;48.490;9.200;2022-09-03T19:18:35;22.40;50.70
652;DHT22;310;48.490;9.200;2022-09-03T19:21:47;22.40;51.00
652;DHT22;310;48.490;9.200;2022-09-03T19:24:34;22.20;51.00
652;DHT22;310;48.490;9.200;2022-09-03T19:27:30;22.20;51.40
652;DHT22;310;48.490;9.200;2022-09-03T19:33:43;22.30;52.00
652;DHT22;310;48.490;9.200;2022-09-03T19:40:07;22.30;51.70
652;DHT22;310;48.490;9.200;2022-09-03T19:43:17;22.40;50.20
652;DHT22;310;48.490;9.200;2022-09-03T19:49:13;22.30;51.30
652;DHT22;310;48.490;9.200;2022-09-03T19:52:48;22.30;51.50
652;DHT22;310;48.490;9.200;2022-09-03T19:55:38;22.40;51.00
652;DHT22;310;48.490;9.200;2022-09-03T19:58:28;22.30;51.70
652;DHT22;310;48.490;9.200;2022-09-03T20:01:13;22.20;51.60
652;DHT22;310;48.490;9.200;2022-09-03T20:04:06;22.00;52.40
652;DHT22;310;48.490;9.200;2022-09-03T20:06:53;21.90;52.10
652;DHT22;310;48.490;9.200;2022-09-03T20:09:39;22.00;52.60
652;DHT22;310;48.490;9.200;2022-09-03T20:12:28;22.30;50.00
652;DHT22;310;48.490;9.200;2022-09-03T20:14:55;22.40;49.40
652;DHT22;310;48.490;9.200;2022-09-03T20:23:11;22.20;50.40
652;DHT22;310;48.490;9.200;2022-09-03T20:41:55;22.10;51.60
652;DHT22;310;48.490;9.200;2022-09-03T20:52:59;22.20;49.80
652;DHT22;310;48.490;9.200;2022-09-03T20:55:41;22.10;49.80
652;DHT22;310;48.490;9.200;2022-09-03T21:01:05;21.80;51.50
652;DHT22;310;48.490;9.200;2022-09-03T21:04:08;21.90;51.10
652;DHT22;310;48.490;9.200;2022-09-03T21:09:40;22.00;49.70
652;DHT22;310;48.490;9.200;2022-09-03T21:12:09;22.00;50.20
652;DHT22;310;48.490;9.200;2022-09-03T21:14:38;21.80;51.80
652;DHT22;310;48.490;9.200;2022-09-03T21:23:27;21.50;53.30
652;DHT22;310;48.490;9.200;2022-09-03T21:31:50;21.70;52.20
652;DHT22;310;48.490;9.200;2022-09-03T21:34:20;21.80;51.20
652;DHT22;310;48.490;9.200;2022-09-03T21:36:49;21.70;52.40
652;DHT22;310;48.490;9.200;2022-09-03T21:39:27;21.60;52.40
652;DHT22;310;48.490;9.200;2022-09-03T21:42:10;21.60;52.90
652;DHT22;310;48.490;9.200;2022-09-03T21:44:51;21.50;53.00
652;DHT22;310;48.490;9.200;2022-09-03T21:47:18;21.40;54.10
652;DHT22;310;48.490;9.200;2022-09-03T21:49:53;21.50;53.40
652;DHT22;310;48.490;9.200;2022-09-03T21:55:21;21.40;54.30
652;DHT22;310;48.490;9.200;2022-09-03T22:00:27;21.30;53.70
652;DHT22;310;48.490;9.200;2022-09-03T22:03:02;21.50;53.90
652;DHT22;310;48.490;9.200;2022-09-03T22:05:48;21.50;52.80
652;DHT22;310;48.490;9.200;2022-09-03T22:08:30;21.60;51.40
652;DHT22;310;48.490;9.200;2022-09-03T22:11:11;21.70;50.70
652;DHT22;310;48.490;9.200;2022-09-03T22:13:49;21.70;50.40
652;DHT22;310;48.490;9.200;2022-09-03T22:18:47;21.40;53.00
652;DHT22;310;48.490;9.200;2022-09-03T22:32:36;21.20;54.40
652;DHT22;310;48.490;9.200;2022-09-03T22:40:48;21.10;53.30
652;DHT22;310;48.490;9.200;2022-09-03T22:51:04;21.00;53.70
652;DHT22;310;48.490;9.200;2022-09-03T22:56:06;21.00;54.00
652;DHT22;310;48.490;9.200;2022-09-03T22:58:46;20.90;53.60
652;DHT22;310;48.490;9.200;2022-09-03T23:05:05;20.80;55.50
652;DHT22;310;48.490;9.200;2022-09-03T23:09:56;20.90;54.60
652;DHT22;310;48.490;9.200;2022-09-03T23:12:46;20.80;54.30
652;DHT22;310;48.490;9.200;2022-09-03T23:15:23;20.80;54.80
652;DHT22;310;48.490;9.200;2022-09-03T23:18:12;20.80;54.00
652;DHT22;310;48.490;9.200;2022-09-03T23:20:46;20.70;55.10
652;DHT22;310;48.490;9.200;2022-09-03T23:23:20;20.80;53.70
652;DHT22;310;48.490;9.200;2022-09-03T23:25:54;20.90;53.50
652;DHT22;310;48.490;9.200;2022-09-03T23:28:28;20.80;53.70
652;DHT22;310;48.490;9.200;2022-09-03T23:33:41;20.60;55.40
652;DHT22;310;48.490;9.200;2022-09-03T23:38:59;20.70;54.50
652;DHT22;310;48.490;9.200;2022-09-03T23:41:39;20.60;54.80
652;DHT22;310;48.490;9.200;2022-09-03T23:47:07;20.50;55.30
652;DHT22;310;48.490;9.200;2022-09-03T23:49:40;20.40;55.20
652;DHT22;310;48.490;9.200;2022-09-03T23:52:38;20.40;55.60
652;DHT22;310;48.490;9.200;2022-09-03T23:55:32;20.40;54.50
